createdAt,value
2022-09-23T00:00:31.382Z,13.80
2022-09-23T00:05:33.625Z,13.80
2022-09-23T00:10:39.270Z,13.70
2022-09-23T00:15:41.523Z,13.60
2022-09-23T00:20:44.761Z,13.60
2022-09-23T00:25:57.955Z,13.60
2022-09-23T00:31:06.838Z,13.60
2022-09-23T00:36:12.348Z,13.60
2022-09-23T00:41:16.185Z,13.60
2022-09-23T00:46:23.091Z,13.60
2022-09-23T00:51:29.837Z,13.60
2022-09-23T00:56:33.288Z,13.50
2022-09-23T01:01:37.504Z,13.50
2022-09-23T01:06:39.835Z,13.40
2022-09-23T01:17:21.271Z,13.40
2022-09-23T01:22:49.683Z,13.30
2022-09-23T01:44:16.574Z,13.50
2022-09-23T01:49:33.197Z,13.50
2022-09-23T01:54:40.076Z,13.50
2022-09-23T01:59:48.218Z,13.60
2022-09-23T02:05:08.007Z,13.50
2022-09-23T02:10:20.151Z,13.50
2022-09-23T02:15:29.027Z,13.50
2022-09-23T02:20:36.192Z,13.40
2022-09-23T02:26:05.346Z,13.40
2022-09-23T02:31:15.674Z,13.30
2022-09-23T02:41:46.939Z,13.30
2022-09-23T02:46:52.383Z,13.10
2022-09-23T02:51:55.154Z,13.00
2022-09-23T02:57:01.015Z,13.00
2022-09-23T03:23:15.349Z,12.70
2022-09-23T03:28:22.011Z,12.90
2022-09-23T03:33:28.973Z,12.90
2022-09-23T03:38:38.098Z,12.80
2022-09-23T03:43:40.500Z,12.80
2022-09-23T03:48:43.035Z,12.90
2022-09-23T03:53:45.231Z,12.80
2022-09-23T03:58:47.542Z,12.80
2022-09-23T04:03:49.787Z,12.80
2022-09-23T04:08:52.191Z,12.80
2022-09-23T04:13:56.154Z,12.80
2022-09-23T04:18:58.419Z,12.80
2022-09-23T04:24:00.790Z,12.80
2022-09-23T04:29:04.974Z,12.80
2022-09-23T04:34:07.301Z,12.80
2022-09-23T04:39:09.548Z,12.80
2022-09-23T04:44:13.503Z,12.90
2022-09-23T04:49:16.484Z,12.90
2022-09-23T04:54:19.030Z,12.90
2022-09-23T04:59:21.259Z,12.90
2022-09-23T05:04:23.505Z,12.90
2022-09-23T05:09:25.710Z,12.90
2022-09-23T05:14:28.336Z,13.00
2022-09-23T05:19:30.548Z,13.10
2022-09-23T05:24:32.827Z,13.20
2022-09-23T05:29:35.079Z,13.30
2022-09-23T05:34:37.303Z,13.30
2022-09-23T05:39:39.615Z,13.60
2022-09-23T05:44:41.832Z,13.80
2022-09-23T05:49:59.255Z,14.00
2022-09-23T05:55:02.687Z,14.20
2022-09-23T06:00:06.008Z,14.50
2022-09-23T06:05:23.533Z,14.80
2022-09-23T06:10:27.241Z,14.90
2022-09-23T06:15:29.627Z,14.90
2022-09-23T06:20:33.125Z,14.90
2022-09-23T06:25:38.423Z,14.90
2022-09-23T06:30:40.717Z,14.90
2022-09-23T06:35:51.603Z,15.00
2022-09-23T06:40:58.444Z,15.00
2022-09-23T06:46:02.295Z,15.10
2022-09-23T06:51:07.380Z,15.80
2022-09-23T06:56:11.465Z,20.10
2022-09-23T07:01:16.394Z,24.20
2022-09-23T07:06:18.795Z,26.40
2022-09-23T07:11:22.646Z,28.10
2022-09-23T07:16:25.114Z,28.80
2022-09-23T07:21:27.914Z,29.80
2022-09-23T07:26:34.037Z,31.40
2022-09-23T07:31:39.800Z,31.80
2022-09-23T07:36:42.452Z,31.60
2022-09-23T07:41:44.892Z,30.40
2022-09-23T07:46:47.740Z,30.50
2022-09-23T07:51:50.083Z,32.10
2022-09-23T07:56:52.398Z,33.20
2022-09-23T08:01:56.765Z,33.00
2022-09-23T08:07:02.211Z,33.00
2022-09-23T08:12:05.429Z,33.90
2022-09-23T08:17:08.092Z,34.10
2022-09-23T08:22:12.275Z,33.20
2022-09-23T08:27:14.868Z,31.90
2022-09-23T08:32:17.072Z,30.20
2022-09-23T08:37:19.299Z,29.30
2022-09-23T08:42:28.295Z,27.70
2022-09-23T08:47:43.794Z,26.60
2022-09-23T08:53:08.241Z,26.20
2022-09-23T08:58:50.227Z,25.70
2022-09-23T09:09:20.876Z,24.70
2022-09-23T09:14:29.332Z,24.30
2022-09-23T09:24:46.515Z,23.10
2022-09-23T09:29:55.483Z,23.20
2022-09-23T09:35:05.705Z,22.30
2022-09-23T09:40:12.361Z,22.00
2022-09-23T09:50:49.513Z,21.10
2022-09-23T09:56:14.801Z,20.50
2022-09-23T10:06:34.084Z,19.50
2022-09-23T10:11:37.295Z,18.60
2022-09-23T10:16:42.186Z,17.90
2022-09-23T10:21:50.835Z,17.60
2022-09-23T10:26:58.139Z,17.60
2022-09-23T11:10:29.280Z,16.80
2022-09-23T11:21:20.619Z,17.00
2022-09-23T11:37:21.547Z,17.40
2022-09-23T11:42:29.068Z,17.70
2022-09-23T11:47:39.975Z,17.70
2022-09-23T11:52:48.607Z,17.50
2022-09-23T11:57:54.302Z,17.30
2022-09-23T12:29:15.715Z,17.60
2022-09-23T12:39:46.982Z,17.50
2022-09-23T12:44:49.555Z,17.10
2022-09-23T12:49:54.079Z,17.10
2022-09-23T12:54:58.152Z,17.10
2022-09-23T13:05:41.642Z,17.20
2022-09-23T13:11:05.471Z,17.20
2022-09-23T13:16:33.302Z,17.00
2022-09-23T13:32:15.171Z,16.80
2022-09-23T13:37:22.694Z,16.80
2022-09-23T13:47:37.919Z,16.90
2022-09-23T13:52:40.239Z,17.00
2022-09-23T13:57:43.176Z,17.10
2022-09-23T14:02:47.060Z,17.00
2022-09-23T14:07:51.249Z,17.00
2022-09-23T14:12:56.257Z,17.00
2022-09-23T14:18:06.373Z,17.10
2022-09-23T14:23:14.843Z,17.00
2022-09-23T14:28:20.123Z,16.90
2022-09-23T14:33:30.732Z,16.90
2022-09-23T14:38:53.251Z,16.90
2022-09-23T14:43:58.916Z,16.70
2022-09-23T14:54:33.163Z,16.60
2022-09-23T14:59:37.106Z,16.80
2022-09-23T15:04:39.348Z,16.80
2022-09-23T15:09:42.907Z,16.90
2022-09-23T15:14:51.269Z,16.90
2022-09-23T15:19:59.848Z,16.80
2022-09-23T15:25:17.530Z,16.80
2022-09-23T15:30:20.222Z,16.80
2022-09-23T15:35:26.817Z,16.80
2022-09-23T15:40:32.802Z,16.70
2022-09-23T15:45:40.346Z,16.60
2022-09-23T15:50:43.029Z,16.60
2022-09-23T15:55:45.527Z,16.50
2022-09-23T16:00:56.048Z,16.40
2022-09-23T16:06:03.073Z,16.20
2022-09-23T16:11:06.556Z,16.10
2022-09-23T16:16:09.120Z,16.00
2022-09-23T16:21:13.621Z,15.90
2022-09-23T16:31:29.707Z,15.80
2022-09-23T16:36:34.828Z,15.60
2022-09-23T16:41:37.140Z,15.40
2022-09-23T16:46:42.883Z,15.30
2022-09-23T16:51:45.338Z,15.30
2022-09-23T16:56:47.615Z,15.30
2022-09-23T17:02:09.929Z,15.30
2022-09-23T17:07:12.305Z,15.20
2022-09-23T17:12:23.915Z,15.10
2022-09-23T17:17:27.759Z,15.10
2022-09-23T17:22:30.296Z,15.00
2022-09-23T17:27:32.577Z,15.10
2022-09-23T17:32:34.939Z,15.00
2022-09-23T17:37:37.476Z,15.00
2022-09-23T17:42:41.687Z,15.00
2022-09-23T17:47:44.041Z,14.90
2022-09-23T17:52:46.368Z,14.90
2022-09-23T17:57:51.437Z,14.90
2022-09-23T18:02:53.763Z,14.90
2022-09-23T18:07:56.095Z,14.90
2022-09-23T18:12:58.467Z,14.80
2022-09-23T18:18:00.696Z,14.80
2022-09-23T18:23:02.931Z,14.90
2022-09-23T18:28:06.214Z,14.90
2022-09-23T18:33:09.390Z,14.80
2022-09-23T18:38:11.601Z,14.80
2022-09-23T18:43:19.653Z,14.80
2022-09-23T18:48:41.960Z,14.80
2022-09-23T18:53:47.888Z,14.80
2022-09-23T18:58:52.044Z,14.80
2022-09-23T19:03:56.320Z,14.80
2022-09-23T19:08:59.136Z,14.80
2022-09-23T19:14:01.595Z,14.80
2022-09-23T19:19:05.516Z,14.80
2022-09-23T19:24:08.363Z,14.80
2022-09-23T19:34:37.776Z,14.80
2022-09-23T19:39:40.876Z,14.80
2022-09-23T19:44:43.103Z,14.90
2022-09-23T19:49:45.316Z,14.80
2022-09-23T19:54:48.729Z,14.80
2022-09-23T19:59:50.982Z,14.70
2022-09-23T20:04:53.216Z,14.70
2022-09-23T20:09:55.893Z,14.70
2022-09-23T20:14:58.217Z,14.60
2022-09-23T20:20:00.724Z,14.60
2022-09-23T20:25:03.964Z,14.60
2022-09-23T20:30:08.041Z,14.50
2022-09-23T20:35:10.337Z,14.60
2022-09-23T20:40:12.634Z,14.60
2022-09-23T20:45:16.825Z,14.60
2022-09-23T20:50:19.483Z,14.60
2022-09-23T20:55:21.887Z,14.60
2022-09-23T21:00:24.548Z,14.50
2022-09-23T21:05:26.777Z,14.50
2022-09-23T21:10:29.021Z,14.40
2022-09-23T21:15:34.753Z,14.40
2022-09-23T21:20:36.956Z,14.30
2022-09-23T21:25:40.168Z,14.30
2022-09-23T21:30:42.491Z,14.30
2022-09-23T21:35:44.844Z,14.30
2022-09-23T21:41:02.694Z,14.20
2022-09-23T21:46:07.738Z,14.20
2022-09-23T21:51:14.138Z,14.10
2022-09-23T22:01:28.310Z,14.10
2022-09-23T22:06:31.128Z,14.00
2022-09-23T22:11:53.705Z,14.00
2022-09-23T22:16:59.162Z,14.00
2022-09-23T22:22:02.783Z,14.00
2022-09-23T22:27:06.618Z,14.00
2022-09-23T22:32:31.611Z,14.00
2022-09-23T22:37:36.246Z,13.90
2022-09-23T22:42:39.435Z,13.80
2022-09-23T22:47:45.247Z,13.80
2022-09-23T22:52:47.837Z,13.70
2022-09-23T22:57:51.608Z,13.70
2022-09-23T23:02:54.658Z,13.70
2022-09-23T23:07:57.632Z,13.70
2022-09-23T23:12:59.855Z,13.60
2022-09-23T23:18:02.088Z,13.60
2022-09-23T23:23:04.513Z,13.50
2022-09-23T23:28:06.812Z,13.50
2022-09-23T23:33:09.079Z,13.50
2022-09-23T23:38:12.575Z,13.40
2022-09-23T23:43:14.919Z,13.40
2022-09-23T23:48:19.382Z,13.30
2022-09-23T23:53:22.695Z,13.30
2022-09-23T23:58:24.918Z,13.20
